createdAt,value
2022-12-01T00:01:06.794Z,17.40
2022-12-01T00:03:55.426Z,14.23
2022-12-01T00:06:43.990Z,20.70
2022-12-01T00:09:50.304Z,15.60
2022-12-01T00:12:43.483Z,14.87
2022-12-01T00:15:34.920Z,14.90
2022-12-01T00:18:23.622Z,13.67
2022-12-01T00:21:15.054Z,16.00
2022-12-01T00:24:03.539Z,15.03
2022-12-01T00:26:52.089Z,17.13
2022-12-01T00:29:41.931Z,20.20
2022-12-01T00:32:30.978Z,18.53
2022-12-01T00:35:19.551Z,19.07
2022-12-01T00:38:08.007Z,20.43
2022-12-01T00:40:56.481Z,23.77
2022-12-01T00:43:44.943Z,28.40
2022-12-01T00:46:37.909Z,28.43
2022-12-01T00:49:26.411Z,28.77
2022-12-01T00:52:15.226Z,28.30
2022-12-01T00:55:03.678Z,26.63
2022-12-01T00:57:52.110Z,28.03
2022-12-01T01:00:40.575Z,31.07
2022-12-01T01:03:31.328Z,33.73
2022-12-01T01:06:19.808Z,30.80
2022-12-01T01:09:08.316Z,32.50
2022-12-01T01:11:56.803Z,30.80
2022-12-01T01:14:45.560Z,28.60
2022-12-01T01:17:34.359Z,30.03
2022-12-01T01:20:24.159Z,31.37
2022-12-01T01:23:12.645Z,31.90
2022-12-01T01:26:05.380Z,28.27
2022-12-01T01:28:54.484Z,31.77
2022-12-01T01:31:42.954Z,27.83
2022-12-01T01:34:31.568Z,30.20
2022-12-01T01:37:21.773Z,31.60
2022-12-01T01:40:11.433Z,29.80
2022-12-01T01:42:59.904Z,29.70
2022-12-01T01:45:48.380Z,31.37
2022-12-01T01:48:37.778Z,31.90
2022-12-01T01:51:28.303Z,32.33
2022-12-01T01:54:20.500Z,28.43
2022-12-01T01:57:10.948Z,30.07
2022-12-01T02:00:02.915Z,36.60
2022-12-01T02:02:51.728Z,34.80
2022-12-01T02:05:40.810Z,30.40
2022-12-01T02:08:29.793Z,28.57
2022-12-01T02:11:49.343Z,31.20
2022-12-01T02:14:50.924Z,30.77
2022-12-01T02:17:46.586Z,27.90
2022-12-01T02:21:04.073Z,31.97
2022-12-01T02:24:42.749Z,32.07
2022-12-01T02:27:43.536Z,31.33
2022-12-01T02:30:41.850Z,28.93
2022-12-01T02:33:33.813Z,30.50
2022-12-01T02:36:28.496Z,27.73
2022-12-01T02:39:21.573Z,23.70
2022-12-01T02:42:33.987Z,23.20
2022-12-01T02:45:29.681Z,24.43
2022-12-01T02:48:23.711Z,21.80
2022-12-01T02:51:15.804Z,27.90
2022-12-01T02:54:04.879Z,22.30
2022-12-01T02:56:53.759Z,19.57
2022-12-01T02:59:43.535Z,24.90
2022-12-01T03:02:42.251Z,23.40
2022-12-01T03:05:39.324Z,25.73
2022-12-01T03:08:33.726Z,25.03
2022-12-01T03:11:35.218Z,26.07
2022-12-01T03:14:33.900Z,24.73
2022-12-01T03:17:29.026Z,23.87
2022-12-01T03:20:21.815Z,25.60
2022-12-01T03:23:14.300Z,26.50
2022-12-01T03:26:06.964Z,25.30
2022-12-01T03:28:57.787Z,27.00
2022-12-01T03:31:50.094Z,24.47
2022-12-01T03:34:41.647Z,25.97
2022-12-01T03:37:34.110Z,29.10
2022-12-01T03:40:27.480Z,24.87
2022-12-01T03:43:19.647Z,22.30
2022-12-01T03:46:11.783Z,28.43
2022-12-01T03:49:00.375Z,22.57
2022-12-01T03:51:51.618Z,27.73
2022-12-01T03:54:46.685Z,25.53
2022-12-01T03:57:39.808Z,26.93
2022-12-01T04:00:28.633Z,24.87
2022-12-01T04:03:19.088Z,24.23
2022-12-01T04:06:07.993Z,27.60
2022-12-01T04:08:56.502Z,28.57
2022-12-01T04:12:02.567Z,24.80
2022-12-01T04:14:52.402Z,32.80
2022-12-01T04:17:43.227Z,27.80
2022-12-01T04:20:31.649Z,21.17
2022-12-01T04:23:34.028Z,28.47
2022-12-01T04:26:22.480Z,26.97
2022-12-01T04:29:11.949Z,27.17
2022-12-01T04:32:01.796Z,29.97
2022-12-01T04:34:50.241Z,25.53
2022-12-01T04:37:39.273Z,29.20
2022-12-01T04:40:27.750Z,30.13
2022-12-01T04:43:16.233Z,30.90
2022-12-01T04:46:05.199Z,30.03
2022-12-01T04:48:55.029Z,30.20
2022-12-01T04:51:43.498Z,29.10
2022-12-01T04:54:32.040Z,30.10
2022-12-01T04:57:20.466Z,30.03
2022-12-01T05:00:13.243Z,28.30
2022-12-01T05:03:02.180Z,31.43
2022-12-01T05:06:01.941Z,32.20
2022-12-01T05:08:51.324Z,27.43
2022-12-01T05:11:39.729Z,34.63
2022-12-01T05:14:28.360Z,30.70
2022-12-01T05:17:16.798Z,31.07
2022-12-01T05:20:23.689Z,27.93
2022-12-01T05:23:16.791Z,27.50
2022-12-01T05:26:07.510Z,29.37
2022-12-01T05:28:55.980Z,28.57
2022-12-01T05:31:46.211Z,30.70
2022-12-01T05:34:34.748Z,27.83
2022-12-01T05:37:23.189Z,30.93
2022-12-01T05:40:13.842Z,27.57
2022-12-01T05:43:02.546Z,30.93
2022-12-01T05:45:51.097Z,25.07
2022-12-01T05:48:39.585Z,27.43
2022-12-01T05:51:28.054Z,27.00
2022-12-01T05:54:17.209Z,26.50
2022-12-01T05:57:07.201Z,27.43
2022-12-01T05:59:55.769Z,23.93
2022-12-01T06:02:44.817Z,28.23
2022-12-01T06:05:33.274Z,30.00
2022-12-01T06:08:21.723Z,24.60
2022-12-01T06:11:10.174Z,25.37
2022-12-01T06:14:00.005Z,23.10
2022-12-01T06:16:48.466Z,24.30
2022-12-01T06:19:36.957Z,26.37
2022-12-01T06:22:25.377Z,26.23
2022-12-01T06:25:13.894Z,27.37
2022-12-01T06:28:02.458Z,25.20
2022-12-01T06:30:54.506Z,26.43
2022-12-01T06:33:46.367Z,23.70
2022-12-01T06:36:34.882Z,26.00
2022-12-01T06:39:23.331Z,22.43
2022-12-01T06:42:12.010Z,30.97
2022-12-01T06:45:00.547Z,23.53
2022-12-01T06:47:54.248Z,22.10
2022-12-01T06:50:42.705Z,21.23
2022-12-01T06:53:31.265Z,24.90
2022-12-01T06:56:19.746Z,22.43
2022-12-01T06:59:08.810Z,22.80
2022-12-01T07:01:58.324Z,22.40
2022-12-01T07:04:48.393Z,25.37
2022-12-01T07:07:38.054Z,22.80
2022-12-01T07:10:27.698Z,23.53
2022-12-01T07:13:16.094Z,25.47
2022-12-01T07:16:05.207Z,25.27
2022-12-01T07:18:53.764Z,22.60
2022-12-01T07:21:43.613Z,23.77
2022-12-01T07:24:32.101Z,21.37
2022-12-01T07:27:20.561Z,23.90
2022-12-01T07:30:10.746Z,23.87
2022-12-01T07:32:59.193Z,23.53
2022-12-01T07:35:47.685Z,27.00
2022-12-01T07:38:37.848Z,23.33
2022-12-01T07:41:26.336Z,23.83
2022-12-01T07:44:14.930Z,24.60
2022-12-01T07:47:03.359Z,24.20
2022-12-01T07:49:52.010Z,24.17
2022-12-01T07:52:40.523Z,28.20
2022-12-01T07:55:30.397Z,23.10
2022-12-01T07:58:18.841Z,24.53
2022-12-01T08:01:08.260Z,24.07
2022-12-01T08:03:58.137Z,23.17
2022-12-01T08:06:46.619Z,24.67
2022-12-01T08:09:35.077Z,21.57
2022-12-01T08:12:24.917Z,26.53
2022-12-01T08:15:13.448Z,22.03
2022-12-01T08:18:03.551Z,24.23
2022-12-01T08:20:52.447Z,27.57
2022-12-01T08:23:41.540Z,23.50
2022-12-01T08:26:30.118Z,25.83
2022-12-01T08:29:20.536Z,24.80
2022-12-01T08:32:09.109Z,22.80
2022-12-01T08:34:57.652Z,24.13
2022-12-01T08:37:46.155Z,23.17
2022-12-01T08:40:34.684Z,22.43
2022-12-01T08:43:49.667Z,22.73
2022-12-01T08:46:35.140Z,25.30
2022-12-01T08:49:23.929Z,23.70
2022-12-01T08:52:12.453Z,23.00
2022-12-01T08:55:01.134Z,23.53
2022-12-01T08:57:49.662Z,25.30
2022-12-01T09:00:38.142Z,26.67
2022-12-01T09:03:27.986Z,22.70
2022-12-01T09:06:20.147Z,20.13
2022-12-01T09:09:09.273Z,20.77
2022-12-01T09:11:58.171Z,21.50
2022-12-01T09:14:49.834Z,23.97
2022-12-01T09:17:38.454Z,19.67
2022-12-01T09:20:32.396Z,19.53
2022-12-01T09:23:21.772Z,16.83
2022-12-01T09:26:13.539Z,21.73
2022-12-01T09:29:04.479Z,17.93
2022-12-01T09:31:56.005Z,21.57
2022-12-01T09:34:44.536Z,21.43
2022-12-01T09:37:34.411Z,20.83
2022-12-01T09:40:32.684Z,22.03
2022-12-01T09:43:22.974Z,20.00
2022-12-01T09:46:16.823Z,20.47
2022-12-01T09:49:05.542Z,23.10
2022-12-01T09:51:55.017Z,20.00
2022-12-01T09:54:45.129Z,19.57
2022-12-01T09:57:36.580Z,20.43
2022-12-01T10:00:27.152Z,22.30
2022-12-01T10:03:22.992Z,20.97
2022-12-01T10:06:27.304Z,22.73
2022-12-01T10:09:24.458Z,18.70
2022-12-01T10:12:16.614Z,19.77
2022-12-01T10:15:26.138Z,21.97
2022-12-01T10:18:24.466Z,18.50
2022-12-01T10:21:25.147Z,19.63
2022-12-01T10:24:22.874Z,23.10
2022-12-01T10:27:18.516Z,20.77
2022-12-01T10:30:10.648Z,22.30
2022-12-01T10:33:03.808Z,20.40
2022-12-01T10:35:52.757Z,21.13
2022-12-01T10:38:41.291Z,19.60
2022-12-01T10:41:31.684Z,22.80
2022-12-01T10:44:21.530Z,25.27
2022-12-01T10:47:18.650Z,23.63
2022-12-01T10:50:08.518Z,20.43
2022-12-01T10:52:57.026Z,18.40
2022-12-01T10:55:48.075Z,20.10
2022-12-01T10:58:44.573Z,21.57
2022-12-01T11:01:35.962Z,22.40
2022-12-01T11:04:45.897Z,20.50
2022-12-01T11:07:35.610Z,19.63
2022-12-01T11:10:25.541Z,22.67
2022-12-01T11:13:19.776Z,21.87
2022-12-01T11:16:10.784Z,17.57
2022-12-01T11:19:09.736Z,20.60
2022-12-01T11:21:59.913Z,22.47
2022-12-01T11:24:59.218Z,20.37
2022-12-01T11:27:50.863Z,21.10
2022-12-01T11:30:39.530Z,20.70
2022-12-01T11:33:29.157Z,31.97
2022-12-01T11:36:27.529Z,20.83
2022-12-01T11:39:23.864Z,21.40
2022-12-01T11:42:22.148Z,19.50
2022-12-01T11:45:25.490Z,18.33
2022-12-01T11:48:25.567Z,19.97
2022-12-01T11:51:27.665Z,19.50
2022-12-01T11:54:18.723Z,22.40
2022-12-01T11:57:33.151Z,22.23
2022-12-01T12:00:20.978Z,21.93
2022-12-01T12:03:20.917Z,20.40
2022-12-01T12:09:40.225Z,22.40
2022-12-01T12:12:44.592Z,21.27
2022-12-01T12:15:41.807Z,22.10
2022-12-01T12:18:45.042Z,23.87
2022-12-01T12:21:35.405Z,22.80
2022-12-01T12:24:37.884Z,18.03
2022-12-01T12:27:32.876Z,21.77
2022-12-01T12:30:24.288Z,19.40
2022-12-01T12:33:44.136Z,19.90
2022-12-01T12:36:41.456Z,19.30
2022-12-01T12:39:42.372Z,23.03
2022-12-01T12:42:37.878Z,19.90
2022-12-01T12:45:29.317Z,20.80
2022-12-01T12:48:25.867Z,21.10
2022-12-01T12:51:17.309Z,21.40
2022-12-01T12:54:14.958Z,25.03
2022-12-01T12:57:07.301Z,18.30
2022-12-01T12:59:59.264Z,21.67
2022-12-01T13:02:50.976Z,20.23
2022-12-01T13:05:43.913Z,20.10
2022-12-01T13:08:36.569Z,21.70
2022-12-01T13:11:28.148Z,17.97
2022-12-01T13:14:22.158Z,20.37
2022-12-01T13:17:17.688Z,18.70
2022-12-01T13:20:07.573Z,22.23
2022-12-01T13:22:57.470Z,23.30
2022-12-01T13:25:49.126Z,17.33
2022-12-01T13:28:40.798Z,20.13
2022-12-01T13:31:30.716Z,21.07
2022-12-01T13:34:23.098Z,18.30
2022-12-01T13:37:11.868Z,22.27
2022-12-01T13:40:10.514Z,18.73
2022-12-01T13:43:06.988Z,18.97
2022-12-01T13:46:03.449Z,19.07
2022-12-01T13:48:56.668Z,18.47
2022-12-01T13:52:22.045Z,19.77
2022-12-01T13:55:29.021Z,21.20
2022-12-01T13:58:26.463Z,22.90
2022-12-01T14:01:46.841Z,23.43
2022-12-01T14:04:37.188Z,20.53
2022-12-01T14:07:34.953Z,21.40
2022-12-01T14:10:30.217Z,17.63
2022-12-01T14:13:21.245Z,19.53
2022-12-01T14:16:10.732Z,23.77
2022-12-01T14:19:00.270Z,24.37
2022-12-01T14:21:50.509Z,21.73
2022-12-01T14:24:41.373Z,22.67
2022-12-01T14:27:38.372Z,19.43
2022-12-01T14:31:03.194Z,36.60
2022-12-01T14:33:54.251Z,20.70
2022-12-01T14:36:43.921Z,26.37
2022-12-01T14:39:36.040Z,21.80
2022-12-01T14:42:48.471Z,20.70
2022-12-01T14:45:41.928Z,22.33
2022-12-01T14:48:35.997Z,23.33
2022-12-01T14:51:28.286Z,31.43
2022-12-01T14:54:21.537Z,23.37
2022-12-01T14:57:16.575Z,18.90
2022-12-01T15:00:09.350Z,24.87
2022-12-01T15:02:59.448Z,20.90
2022-12-01T15:05:47.894Z,24.50
2022-12-01T15:08:45.784Z,21.50
2022-12-01T15:11:52.426Z,21.73
2022-12-01T15:14:49.224Z,23.20
2022-12-01T15:17:38.149Z,21.87
2022-12-01T15:20:32.198Z,22.67
2022-12-01T15:23:20.665Z,22.37
2022-12-01T15:26:18.069Z,23.17
2022-12-01T15:29:15.058Z,21.00
2022-12-01T15:32:07.965Z,25.27
2022-12-01T15:34:57.110Z,21.57
2022-12-01T15:37:46.037Z,22.93
2022-12-01T15:43:43.123Z,25.47
2022-12-01T15:46:34.178Z,21.97
2022-12-01T15:49:29.444Z,20.60
2022-12-01T15:52:18.702Z,23.40
2022-12-01T15:55:07.961Z,20.63
2022-12-01T15:57:56.897Z,23.00
2022-12-01T16:01:00.935Z,23.60
2022-12-01T16:03:53.273Z,20.40
2022-12-01T16:06:43.390Z,21.47
2022-12-01T16:09:35.604Z,22.20
2022-12-01T16:12:26.107Z,21.20
2022-12-01T16:15:18.368Z,23.47
2022-12-01T16:18:27.505Z,25.90
2022-12-01T16:21:17.141Z,22.83
2022-12-01T16:24:07.729Z,25.97
2022-12-01T16:26:59.569Z,22.30
2022-12-01T16:29:51.264Z,25.20
2022-12-01T16:32:41.825Z,23.97
2022-12-01T16:35:33.648Z,21.30
2022-12-01T16:38:24.532Z,21.60
2022-12-01T16:41:19.019Z,25.27
2022-12-01T16:44:27.554Z,25.47
2022-12-01T16:47:17.851Z,19.70
2022-12-01T16:50:07.318Z,21.67
2022-12-01T16:52:55.811Z,25.30
2022-12-01T16:55:47.690Z,26.87
2022-12-01T16:58:37.624Z,22.87
2022-12-01T17:01:26.176Z,27.57
2022-12-01T17:04:14.697Z,25.30
2022-12-01T17:07:03.235Z,24.87
2022-12-01T17:09:52.992Z,22.80
2022-12-01T17:12:41.772Z,25.10
2022-12-01T17:15:31.741Z,24.43
2022-12-01T17:18:21.751Z,23.77
2022-12-01T17:21:11.884Z,23.30
2022-12-01T17:24:00.394Z,24.97
2022-12-01T17:26:48.905Z,24.17
2022-12-01T17:29:44.468Z,24.73
2022-12-01T17:32:35.917Z,25.67
2022-12-01T17:35:24.468Z,25.60
2022-12-01T17:38:13.041Z,23.67
2022-12-01T17:41:05.679Z,24.37
2022-12-01T17:43:54.217Z,27.60
2022-12-01T17:46:42.836Z,27.57
2022-12-01T17:49:32.871Z,29.73
2022-12-01T17:52:26.662Z,33.83
2022-12-01T17:55:16.922Z,28.97
2022-12-01T17:58:05.452Z,26.50
2022-12-01T18:00:54.733Z,23.53
2022-12-01T18:03:43.451Z,24.93
2022-12-01T18:06:33.424Z,28.93
2022-12-01T18:09:22.212Z,23.77
2022-12-01T18:12:10.754Z,25.73
2022-12-01T18:14:59.308Z,25.63
2022-12-01T18:17:48.040Z,26.73
2022-12-01T18:20:41.113Z,27.10
2022-12-01T18:23:30.977Z,22.60
2022-12-01T18:26:21.939Z,26.20
2022-12-01T18:29:13.720Z,33.73
2022-12-01T18:32:02.202Z,24.57
2022-12-01T18:34:50.841Z,24.30
2022-12-01T18:37:40.385Z,24.27
2022-12-01T18:40:30.306Z,26.83
2022-12-01T18:43:18.828Z,28.40
2022-12-01T18:46:07.716Z,26.67
2022-12-01T18:49:00.688Z,24.77
2022-12-01T18:51:49.203Z,26.23
2022-12-01T18:54:37.698Z,26.30
2022-12-01T18:57:28.053Z,26.40
2022-12-01T19:00:17.166Z,27.73
2022-12-01T19:03:05.637Z,24.60
2022-12-01T19:05:54.192Z,25.70
2022-12-01T19:08:43.042Z,26.20
2022-12-01T19:11:31.876Z,30.67
2022-12-01T19:14:23.517Z,27.63
2022-12-01T19:17:12.030Z,33.10
2022-12-01T19:20:00.546Z,25.07
2022-12-01T19:22:49.066Z,26.40
2022-12-01T19:25:37.748Z,27.07
2022-12-01T19:28:26.304Z,25.73
2022-12-01T19:31:18.563Z,31.70
2022-12-01T19:34:07.399Z,25.97
2022-12-01T19:36:56.821Z,26.40
2022-12-01T19:39:45.392Z,28.90
2022-12-01T19:42:33.879Z,31.23
2022-12-01T19:45:22.417Z,30.23
2022-12-01T19:48:12.421Z,33.87
2022-12-01T19:51:01.310Z,29.90
2022-12-01T19:53:50.427Z,31.73
2022-12-01T19:56:38.904Z,25.90
2022-12-01T19:59:27.412Z,27.80
2022-12-01T20:02:15.890Z,28.10
2022-12-01T20:05:06.522Z,33.70
2022-12-01T20:07:55.053Z,30.43
2022-12-01T20:10:48.061Z,28.27
2022-12-01T20:13:39.131Z,29.93
2022-12-01T20:16:28.609Z,31.07
2022-12-01T20:19:17.170Z,29.60
2022-12-01T20:22:06.997Z,29.00
2022-12-01T20:24:55.497Z,36.23
2022-12-01T20:27:45.407Z,29.63
2022-12-01T20:30:33.963Z,32.40
2022-12-01T20:33:22.803Z,33.17
2022-12-01T20:36:11.720Z,32.83
2022-12-01T20:39:01.648Z,31.43
2022-12-01T20:41:50.152Z,35.80
2022-12-01T20:44:40.067Z,29.77
2022-12-01T20:47:28.619Z,34.30
2022-12-01T20:50:17.185Z,33.80
2022-12-01T20:53:05.996Z,35.53
2022-12-01T20:55:56.617Z,40.77
2022-12-01T20:58:45.182Z,36.67
2022-12-01T21:01:33.784Z,38.07
2022-12-01T21:04:22.473Z,39.53
2022-12-01T21:07:11.007Z,40.73
2022-12-01T21:09:59.507Z,41.77
2022-12-01T21:13:16.862Z,35.23
2022-12-01T21:16:10.838Z,42.00
2022-12-01T21:19:06.379Z,38.93
2022-12-01T21:21:54.843Z,42.37
2022-12-01T21:24:51.195Z,40.03
2022-12-01T21:27:39.972Z,37.10
2022-12-01T21:30:30.324Z,43.87
2022-12-01T21:33:28.402Z,39.13
2022-12-01T21:36:18.681Z,44.10
2022-12-01T21:39:14.905Z,39.80
2022-12-01T21:42:15.349Z,42.53
2022-12-01T21:45:07.157Z,41.40
2022-12-01T21:48:00.815Z,39.23
2022-12-01T21:50:54.031Z,38.70
2022-12-01T21:53:42.786Z,35.13
2022-12-01T21:56:32.155Z,41.70
2022-12-01T21:59:22.351Z,43.33
2022-12-01T22:02:30.615Z,40.47
2022-12-01T22:05:28.289Z,36.43
2022-12-01T22:08:24.555Z,43.20
2022-12-01T22:11:18.525Z,42.10
2022-12-01T22:14:14.125Z,39.53
2022-12-01T22:17:15.763Z,43.60
2022-12-01T22:20:18.853Z,44.50
2022-12-01T22:23:11.884Z,43.63
2022-12-01T22:26:00.394Z,40.43
2022-12-01T22:28:49.565Z,47.57
2022-12-01T22:31:38.055Z,49.47
2022-12-01T22:34:26.567Z,45.93
2022-12-01T22:37:15.901Z,41.87
2022-12-01T22:40:35.802Z,47.83
2022-12-01T22:43:27.126Z,43.03
2022-12-01T22:46:31.445Z,44.73
2022-12-01T22:49:22.263Z,39.40
2022-12-01T22:52:18.381Z,49.17
2022-12-01T22:55:14.975Z,44.47
2022-12-01T22:58:12.772Z,43.77
2022-12-01T23:01:03.718Z,49.27
2022-12-01T23:03:55.652Z,40.03
2022-12-01T23:07:00.320Z,53.90
2022-12-01T23:09:48.901Z,48.23
2022-12-01T23:12:37.879Z,43.67
2022-12-01T23:15:34.644Z,49.63
2022-12-01T23:18:24.873Z,45.13
2022-12-01T23:21:13.420Z,49.07
2022-12-01T23:24:03.404Z,42.27
2022-12-01T23:26:51.927Z,45.93
2022-12-01T23:29:40.413Z,45.13
2022-12-01T23:32:30.210Z,49.87
2022-12-01T23:35:19.401Z,49.67
2022-12-01T23:38:11.523Z,46.97
2022-12-01T23:41:02.053Z,49.30
2022-12-01T23:43:51.069Z,41.70
2022-12-01T23:46:39.587Z,50.33
2022-12-01T23:49:31.343Z,47.90
2022-12-01T23:52:21.051Z,47.73
2022-12-01T23:55:17.640Z,43.20
2022-12-01T23:58:06.155Z,50.93
